Time;durP1;ratioP1;P1;durP2;ratioP2;P2;SDS_P1;SDS_P2;PMS_P1;PMS_P2;Temp;Humidity;BMP_temperature;BMP_pressure;BME280_temperature;BME280_humidity;BME280_pressure;Samples;Min_cycle;Max_cycle;Signal;HPM_P1;HPM_P2
2022/01/22 00:00:55;;;;;;;21.40;7.00;;;;;;;-2.42;66.59;98641.48;25496;1294;3030071;-66
2022/01/22 00:03:24;;;;;;;21.00;6.80;;;;;;;-2.31;66.22;98639.35;25513;1294;3052645;-69
2022/01/22 00:05:53;;;;;;;18.80;7.20;;;;;;;-2.45;66.31;98636.38;25501;1294;3026167;-70
2022/01/22 00:08:22;;;;;;;20.20;7.90;;;;;;;-2.46;66.90;98638.83;25566;1294;3049056;-70
2022/01/22 00:10:52;;;;;;;16.70;6.50;;;;;;;-2.60;67.57;98639.10;25562;1295;3026291;-69
2022/01/22 00:16:29;;;;;;;20.60;5.80;;;;;;;-2.49;67.04;98639.05;25556;1294;3049724;-66
2022/01/22 00:18:57;;;;;;;14.20;6.20;;;;;;;-2.52;67.32;98627.11;25613;1294;3026812;-68
2022/01/22 00:21:26;;;;;;;17.80;6.00;;;;;;;-2.52;67.22;98623.35;25899;1294;3058486;-63
2022/01/22 00:23:58;;;;;;;15.20;4.10;;;;;;;-2.51;67.34;98624.20;26026;1293;3026065;-69
2022/01/22 00:26:28;;;;;;;16.20;6.50;;;;;;;-2.46;67.15;98626.30;26050;1294;3051208;-69
2022/01/22 00:28:57;;;;;;;22.90;6.70;;;;;;;-2.48;67.28;98623.08;25489;1294;3026365;-71
2022/01/22 00:31:26;;;;;;;21.90;6.50;;;;;;;-2.53;67.18;98621.81;25509;1294;3052072;-70
2022/01/22 00:33:55;;;;;;;16.90;6.40;;;;;;;-2.56;67.50;98616.20;25486;1294;3027079;-67
2022/01/22 00:36:23;;;;;;;20.30;6.70;;;;;;;-2.51;67.23;98615.77;25483;1293;3048587;-69
2022/01/22 00:38:53;;;;;;;15.10;6.50;;;;;;;-2.53;67.24;98611.86;25490;1294;3028327;-69
2022/01/22 00:41:22;;;;;;;19.30;7.00;;;;;;;-2.46;67.13;98609.50;25475;1295;3070954;-70
2022/01/22 00:43:53;;;;;;;21.70;6.60;;;;;;;-2.59;67.91;98611.64;25479;1295;3027020;-65
2022/01/22 00:46:23;;;;;;;14.20;5.60;;;;;;;-2.58;67.64;98609.23;25499;1294;3027315;-70
2022/01/22 00:48:52;;;;;;;18.50;7.40;;;;;;;-2.53;67.32;98603.30;25498;1294;3028840;-67
2022/01/22 00:51:21;;;;;;;14.70;5.90;;;;;;;-2.61;68.00;98611.86;25520;1294;3048294;-67
2022/01/22 00:53:50;;;;;;;24.10;7.80;;;;;;;-2.59;67.36;98614.05;25550;1293;3027936;-69
2022/01/22 00:56:19;;;;;;;14.40;6.00;;;;;;;-2.61;67.80;98609.46;25512;1294;3027176;-69
2022/01/22 00:58:48;;;;;;;12.70;6.20;;;;;;;-2.66;67.81;98608.20;25530;1293;3047579;-70
2022/01/22 01:01:16;;;;;;;21.10;6.20;;;;;;;-2.79;68.31;98611.02;25497;1294;3027674;-70
2022/01/22 01:03:46;;;;;;;22.60;7.00;;;;;;;-2.89;68.73;98612.95;25483;1295;3068665;-71
2022/01/22 01:06:14;;;;;;;16.50;6.60;;;;;;;-2.74;68.57;98608.01;25514;1294;3026489;-69
2022/01/22 01:08:44;;;;;;;9.60;4.20;;;;;;;-2.82;68.58;98602.34;25499;1294;3053174;-67
2022/01/22 01:11:17;;;;;;;17.20;5.50;;;;;;;-2.77;68.37;98604.48;25477;1294;3026712;-71
2022/01/22 01:13:50;;;;;;;15.50;6.30;;;;;;;-2.73;67.98;98603.36;25508;1294;3026570;-66
2022/01/22 01:16:32;;;;;;;16.00;6.90;;;;;;;-2.84;68.19;98607.88;25466;1295;3026492;-69
2022/01/22 01:33:18;;;;;;;21.10;6.90;;;;;;;-3.22;69.25;98613.90;25527;1294;3071565;-69
2022/01/22 01:35:47;;;;;;;;;;;;;;;-3.22;69.35;98618.69;25503;1293;3048033;-65
2022/01/22 01:38:19;;;;;;;16.70;6.60;;;;;;;-3.32;69.43;98613.58;25487;1295;3026660;-69
2022/01/22 01:40:59;;;;;;;17.30;5.90;;;;;;;-3.53;70.22;98620.61;25475;1295;3071760;-70
2022/01/22 01:43:33;;;;;;;11.00;5.40;;;;;;;-3.51;69.52;98618.70;25499;1294;3047462;-67
2022/01/22 01:46:22;;;;;;;15.90;5.80;;;;;;;-3.52;69.38;98621.80;25481;1294;3054604;-73
2022/01/22 01:48:51;;;;;;;14.90;6.00;;;;;;;-3.58;69.55;98621.91;25533;1294;3026557;-70
2022/01/22 01:51:23;;;;;;;25.30;6.50;;;;;;;-3.51;69.20;98626.23;25519;1294;3026552;-69
2022/01/22 01:54:33;;;;;;;62.30;11.50;;;;;;;-3.55;69.01;98624.94;25522;1293;3026853;-69
2022/01/22 01:59:38;;;;;;;21.70;7.00;;;;;;;-3.68;69.00;98625.16;25489;1294;3052939;-68
2022/01/22 02:02:07;;;;;;;18.40;7.10;;;;;;;-3.78;69.49;98626.84;25491;1295;3030879;-70
2022/01/22 02:04:36;;;;;;;21.10;8.10;;;;;;;-3.82;69.51;98625.89;25497;1294;3055336;-71
2022/01/22 02:07:06;;;;;;;15.90;5.70;;;;;;;-3.94;69.73;98629.33;25464;1294;3026391;-68
2022/01/22 02:09:37;;;;;;;18.50;6.00;;;;;;;-4.01;69.84;98633.53;25473;1295;3049310;-67
2022/01/22 02:12:17;;;;;;;17.00;7.40;;;;;;;-3.88;69.12;98638.98;25518;1294;3026940;-74
2022/01/22 02:23:34;;;;;;;21.80;7.20;;;;;;;-4.13;69.53;98649.63;25500;1294;3053032;-65
2022/01/22 02:26:04;;;;;;;22.70;7.90;;;;;;;-4.26;69.94;98652.52;25492;1294;3051967;-68
2022/01/22 02:28:34;;;;;;;18.30;6.50;;;;;;;-4.13;69.51;98650.30;25481;1294;3026828;-68
2022/01/22 02:37:33;;;;;;;17.90;7.60;;;;;;;-4.16;69.41;98653.42;25496;1294;3054126;-70
2022/01/22 02:40:17;;;;;;;23.80;8.80;;;;;;;-4.33;69.91;98649.73;25479;1294;3067936;-72
2022/01/22 02:42:27;;;;;;;17.60;6.70;;;;;;;-4.33;70.21;98655.19;25491;1294;3048538;-71
2022/01/22 02:44:58;;;;;;;21.50;8.10;;;;;;;-4.35;69.62;98654.54;25494;1294;3051088;-67
2022/01/22 02:47:27;;;;;;;22.50;7.70;;;;;;;-4.49;70.18;98655.91;25499;1297;3027658;-69
2022/01/22 02:49:56;;;;;;;15.80;7.00;;;;;;;-4.53;70.37;98660.93;25497;1294;3026431;-70
2022/01/22 02:52:25;;;;;;;19.20;7.00;;;;;;;-4.53;70.62;98661.27;25515;1297;3053967;-69
2022/01/22 02:54:56;;;;;;;14.70;5.60;;;;;;;-4.51;70.24;98655.95;25486;1294;3026476;-68
2022/01/22 02:57:25;;;;;;;34.80;11.00;;;;;;;-4.47;69.71;98653.16;25510;1295;3027179;-68
2022/01/22 02:59:58;;;;;;;26.40;10.50;;;;;;;-4.50;70.04;98646.34;25490;1294;3027215;-66
2022/01/22 03:02:27;;;;;;;20.30;7.70;;;;;;;-4.49;69.81;98647.02;25468;1295;3026091;-68
2022/01/22 03:04:57;;;;;;;18.70;6.90;;;;;;;-4.56;69.82;98645.05;25537;1294;3026143;-66
2022/01/22 03:07:26;;;;;;;33.70;8.80;;;;;;;-4.51;70.17;98646.20;25497;1294;3026418;-71
2022/01/22 03:10:00;;;;;;;35.30;8.30;;;;;;;-4.65;70.43;98650.13;25487;1294;3055368;-68
2022/01/22 03:28:07;;;;;;;14.70;5.80;;;;;;;-4.73;70.73;98656.04;25492;1294;3051123;-64
2022/01/22 03:30:36;;;;;;;17.50;5.90;;;;;;;-4.59;70.24;98659.11;25519;1293;3026500;-66
2022/01/22 03:33:05;;;;;;;15.80;7.50;;;;;;;-4.68;70.55;98661.96;25488;1294;3026371;-69
2022/01/22 03:35:35;;;;;;;21.70;7.90;;;;;;;-4.80;71.14;98664.83;25495;1295;3048865;-70
2022/01/22 03:38:04;;;;;;;19.90;7.50;;;;;;;-4.70;70.84;98666.93;25526;1294;3030187;-68
2022/01/22 03:40:34;;;;;;;14.30;6.00;;;;;;;-4.59;70.23;98662.88;25510;1294;3026380;-69
2022/01/22 03:43:52;;;;;;;22.90;8.90;;;;;;;-4.46;70.13;98660.32;31448;1319;3026103;-67
2022/01/22 03:46:21;;;;;;;25.40;10.70;;;;;;;-4.29;69.73;98658.39;24971;1318;3026958;-65
2022/01/22 03:48:50;;;;;;;18.90;8.40;;;;;;;-4.09;68.62;98659.66;25063;1319;3027048;-68
2022/01/22 03:51:19;;;;;;;21.60;8.10;;;;;;;-4.18;68.79;98660.29;25014;1319;3048739;-68
2022/01/22 03:53:48;;;;;;;20.20;7.60;;;;;;;-4.36;69.07;98659.85;24994;1319;3026744;-69
2022/01/22 03:56:18;;;;;;;23.60;8.50;;;;;;;-4.45;69.49;98660.98;24785;1313;3071100;-72
2022/01/22 03:59:07;;;;;;;19.80;7.10;;;;;;;-4.62;69.80;98675.04;25071;1312;3049020;-66
2022/01/22 04:04:32;;;;;;;20.30;8.00;;;;;;;-4.81;70.22;98681.08;25095;1316;3052611;-68
2022/01/22 04:09:38;;;;;;;19.20;7.30;;;;;;;-5.04;71.13;98695.15;25093;1315;3026814;-72
2022/01/22 04:12:09;;;;;;;16.80;6.70;;;;;;;-5.03;71.45;98700.60;25100;1313;3055254;-71
2022/01/22 04:14:47;;;;;;;19.60;6.80;;;;;;;-4.97;71.51;98704.14;25135;1312;3026846;-69
2022/01/22 04:24:48;;;;;;;21.00;8.10;;;;;;;-4.89;71.08;98706.77;25127;1313;3069177;-66
2022/01/22 04:25:46;;;;;;;13.00;4.60;;;;;;;-4.82;71.46;98705.18;25122;1313;3052304;-66
2022/01/22 04:28:15;;;;;;;19.00;6.40;;;;;;;-4.70;71.47;98700.42;25146;1312;3059010;-67
2022/01/22 04:30:46;;;;;;;12.70;4.90;;;;;;;-4.70;72.14;98701.43;25166;1313;3026410;-69
2022/01/22 04:33:15;;;;;;;15.60;5.60;;;;;;;-4.02;70.33;98696.33;25149;1313;3054082;-69
2022/01/22 04:35:44;;;;;;;18.20;6.20;;;;;;;-3.39;68.43;98698.98;25210;1313;3026352;-64
2022/01/22 04:38:13;;;;;;;18.90;6.90;;;;;;;-3.42;67.24;98699.70;25561;1313;3052426;-64
2022/01/22 04:40:42;;;;;;;17.10;6.60;;;;;;;-3.72;67.51;98704.28;25565;1313;3027111;-64
2022/01/22 04:43:12;;;;;;;21.60;6.80;;;;;;;-3.90;67.87;98706.94;25466;1313;3047527;-66
2022/01/22 04:56:37;;;;;;;39.60;14.30;;;;;;;-4.89;70.44;98696.55;25035;1319;3055370;-68
2022/01/22 04:59:06;;;;;;;24.60;10.60;;;;;;;-4.81;70.32;98698.32;25118;1313;3028962;-67
2022/01/22 05:01:38;;;;;;;20.90;8.40;;;;;;;-4.87;70.33;98707.45;25089;1313;3054338;-69
2022/01/22 05:04:22;;;;;;;19.50;7.70;;;;;;;-4.85;70.43;98705.71;25112;1313;3055578;-66
2022/01/22 05:06:56;;;;;;;20.20;7.60;;;;;;;-4.85;70.43;98710.66;25147;1313;3058604;-68
2022/01/22 05:09:43;;;;;;;19.60;8.00;;;;;;;-5.00;70.99;98715.42;25133;1313;3049555;-68
2022/01/22 05:12:13;;;;;;;22.60;7.40;;;;;;;-5.02;71.31;98715.29;25127;1313;3026272;-70
2022/01/22 05:14:45;;;;;;;66.80;14.00;;;;;;;-5.06;71.20;98714.46;25124;1316;3026918;-70
2022/01/22 05:17:14;;;;;;;69.60;14.30;;;;;;;-5.17;71.79;98716.95;25160;1313;3026197;-67
2022/01/22 05:19:56;;;;;;;32.60;9.50;;;;;;;-5.26;72.00;98713.63;25120;1315;3054882;-70
2022/01/22 05:22:54;;;;;;;26.30;9.20;;;;;;;-5.42;72.74;98720.06;25122;1316;3051338;-65
2022/01/22 05:25:31;;;;;;;41.60;11.80;;;;;;;-5.47;72.86;98725.91;25097;1313;3071236;-70
2022/01/22 05:39:14;;;;;;;29.50;9.00;;;;;;;-5.43;72.53;98722.48;25120;1313;3052304;-68
2022/01/22 05:41:43;;;;;;;28.50;8.40;;;;;;;-5.44;72.41;98734.27;25134;1313;3028022;-66
2022/01/22 05:44:12;;;;;;;24.50;8.90;;;;;;;-5.38;72.55;98731.65;25117;1313;3054781;-65
2022/01/22 05:46:41;;;;;;;20.50;8.60;;;;;;;-5.28;72.24;98735.15;25108;1316;3029296;-71
2022/01/22 05:49:10;;;;;;;15.60;6.40;;;;;;;-5.18;71.95;98734.72;25120;1313;3051809;-70
2022/01/22 05:51:41;;;;;;;31.80;10.00;;;;;;;-5.24;71.45;98736.98;25127;1313;3026321;-69
2022/01/22 05:59:36;;;;;;;38.20;10.60;;;;;;;-4.28;70.34;98729.87;25122;1313;3049376;-66
2022/01/22 06:02:16;;;;;;;29.90;10.60;;;;;;;-4.16;68.70;98722.00;25125;1313;3051200;-65
2022/01/22 06:04:48;;;;;;;27.10;10.10;;;;;;;-4.12;68.03;98720.94;25126;1313;3051555;-73
2022/01/22 06:07:19;;;;;;;17.30;8.00;;;;;;;-4.38;68.95;98724.50;25152;1313;3026924;-71
2022/01/22 06:10:27;;;;;;;20.60;8.30;;;;;;;-4.25;68.85;98725.03;25142;1313;3028453;-69
2022/01/22 06:15:15;;;;;;;19.70;6.70;;;;;;;-4.82;70.53;98730.63;25128;1313;3029166;-73
2022/01/22 06:18:07;;;;;;;22.40;7.80;;;;;;;-4.80;70.15;98730.95;25132;1313;3048487;-71
2022/01/22 06:20:37;;;;;;;18.80;8.40;;;;;;;-4.81;69.99;98734.20;25129;1313;3026068;-68
2022/01/22 06:23:06;;;;;;;18.50;8.90;;;;;;;-4.76;69.56;98737.74;25150;1313;3027686;-69
2022/01/22 06:25:35;;;;;;;16.50;8.10;;;;;;;-4.88;70.11;98745.22;25122;1313;3026429;-71
2022/01/22 06:28:04;;;;;;;21.60;8.80;;;;;;;-4.94;70.21;98746.29;25135;1313;3053000;-74
2022/01/22 06:30:35;;;;;;;27.50;10.30;;;;;;;-4.92;70.05;98754.30;25120;1313;3026446;-67
2022/01/22 06:33:04;;;;;;;23.00;9.30;;;;;;;-4.98;70.44;98748.21;25149;1313;3026457;-69
2022/01/22 06:35:35;;;;;;;29.80;10.00;;;;;;;-5.11;70.87;98757.20;25143;1313;3052575;-66
2022/01/22 06:38:07;;;;;;;15.40;5.50;;;;;;;-5.08;70.83;98761.96;25175;1313;3026767;-66
2022/01/22 06:44:22;;;;;;;29.30;10.60;;;;;;;-5.17;71.36;98767.51;25138;1313;3048692;-68
2022/01/22 06:46:57;;;;;;;22.10;8.30;;;;;;;-4.96;70.48;98767.66;25143;1313;3053715;-68
2022/01/22 06:49:58;;;;;;;27.90;10.40;;;;;;;-5.01;70.43;98766.17;25057;1313;3052387;-72
2022/01/22 06:52:57;;;;;;;31.40;9.40;;;;;;;-5.01;70.57;98767.55;25166;1312;3055833;-71
2022/01/22 06:55:45;;;;;;;26.90;9.80;;;;;;;-5.11;71.44;98772.91;25124;1313;3052478;-68
2022/01/22 06:58:16;;;;;;;27.50;10.60;;;;;;;-5.05;71.19;98778.52;25163;1313;3052859;-72
2022/01/22 07:00:53;;;;;;;26.70;10.00;;;;;;;-5.03;71.40;98771.66;25162;1313;3052965;-71
2022/01/22 07:03:27;;;;;;;22.50;9.50;;;;;;;-4.84;70.64;98771.63;25162;1313;3068650;-68
2022/01/22 07:06:03;;;;;;;25.40;10.00;;;;;;;-4.64;70.09;98766.16;25124;1313;3049240;-71
2022/01/22 07:08:35;;;;;;;23.30;10.10;;;;;;;-4.68;70.17;98763.98;25148;1313;3028420;-70
2022/01/22 07:11:06;;;;;;;30.00;12.60;;;;;;;-4.54;69.51;98764.52;25167;1313;3028687;-67
2022/01/22 07:13:37;;;;;;;23.50;9.70;;;;;;;-4.53;69.52;98771.87;25152;1313;3027671;-71
2022/01/22 07:16:07;;;;;;;24.20;10.60;;;;;;;-4.58;69.52;98770.88;25158;1313;3026765;-69
2022/01/22 07:18:43;;;;;;;29.70;12.40;;;;;;;-4.59;69.37;98760.82;25123;1313;3055414;-69
2022/01/22 07:21:19;;;;;;;30.30;12.40;;;;;;;-4.67;70.20;98767.56;25118;1313;3026581;-69
2022/01/22 07:26:27;;;;;;;40.90;13.60;;;;;;;-4.54;69.80;98765.37;25164;1313;3048284;-70
2022/01/22 07:29:11;;;;;;;31.00;12.30;;;;;;;-4.54;69.58;98768.10;25136;1313;3053165;-68
2022/01/22 07:31:41;;;;;;;45.40;13.70;;;;;;;-4.62;69.80;98775.88;25134;1313;3026831;-66
2022/01/22 07:34:10;;;;;;;30.80;12.40;;;;;;;-4.33;69.34;98771.81;25127;1313;3027338;-68
2022/01/22 07:36:39;;;;;;;26.70;11.80;;;;;;;-4.50;68.95;98775.06;25179;1313;3051440;-70
2022/01/22 07:39:08;;;;;;;33.30;12.00;;;;;;;-4.42;69.39;98778.92;25178;1313;3028205;-71
2022/01/22 07:41:41;;;;;;;24.20;11.30;;;;;;;-4.34;68.96;98777.81;25134;1313;3047395;-68
2022/01/22 07:44:31;;;;;;;29.30;11.10;;;;;;;-4.15;68.65;98786.13;25143;1316;3055011;-71
2022/01/22 07:47:01;;;;;;;39.80;13.30;;;;;;;-4.03;68.11;98793.53;25125;1313;3028965;-70
2022/01/22 07:49:30;;;;;;;38.10;14.40;;;;;;;-3.95;67.90;98792.73;25237;1313;3026433;-72
2022/01/22 07:52:04;;;;;;;;;;;;;;;-3.72;67.41;98785.59;25154;1313;3051742;-70
2022/01/22 07:54:34;;;;;;;33.30;11.30;;;;;;;-3.69;67.04;98783.48;25164;1313;3026627;-69
2022/01/22 07:57:03;;;;;;;27.00;9.90;;;;;;;-3.38;66.08;98781.50;25126;1316;3026482;-67
2022/01/22 07:59:34;;;;;;;34.50;12.20;;;;;;;-3.30;65.74;98781.05;25179;1316;3051912;-71
2022/01/22 08:02:04;;;;;;;29.40;12.00;;;;;;;-3.28;65.85;98782.05;25137;1316;3028914;-72
2022/01/22 08:04:52;;;;;;;29.70;12.20;;;;;;;-3.26;65.86;98788.34;25135;1316;3056855;-69
2022/01/22 08:07:55;;;;;;;43.70;13.40;;;;;;;-3.15;65.41;98779.95;25167;1315;3052596;-73
2022/01/22 08:10:57;;;;;;;27.70;9.20;;;;;;;-2.91;64.48;98791.06;25134;1316;3056116;-71
2022/01/22 08:13:26;;;;;;;29.50;12.10;;;;;;;-2.83;64.58;98804.80;25159;1316;3029777;-69
2022/01/22 08:15:56;;;;;;;33.90;12.20;;;;;;;-3.11;65.02;98804.73;25140;1316;3051003;-71
2022/01/22 08:18:25;;;;;;;32.20;10.30;;;;;;;-2.77;64.29;98806.08;25145;1315;3026285;-69
2022/01/22 08:20:55;;;;;;;36.70;10.80;;;;;;;-2.58;63.43;98799.73;25117;1315;3027119;-71
2022/01/22 08:23:42;;;;;;;37.70;14.20;;;;;;;-2.67;63.83;98802.64;25116;1316;3069502;-67
2022/01/22 08:26:34;;;;;;;27.30;11.80;;;;;;;-2.59;63.58;98808.69;25164;1313;3052244;-72
2022/01/22 08:29:15;;;;;;;30.40;10.70;;;;;;;-2.41;63.42;98813.84;25189;1313;3051831;-71
2022/01/22 08:32:03;;;;;;;20.70;10.40;;;;;;;-2.58;63.38;98815.17;25148;1312;3027085;-72
2022/01/22 08:37:22;;;;;;;32.20;13.20;;;;;;;-2.60;63.88;98815.03;25169;1313;3055883;-70
2022/01/22 08:39:51;;;;;;;27.90;11.30;;;;;;;-2.66;63.78;98813.42;25181;1313;3028914;-75
2022/01/22 08:42:20;;;;;;;34.50;12.40;;;;;;;-2.58;63.96;98809.85;25140;1316;3048704;-73
2022/01/22 08:44:49;;;;;;;28.80;10.90;;;;;;;-2.56;63.87;98816.34;25180;1313;3026860;-71
2022/01/22 08:47:18;;;;;;;38.30;12.90;;;;;;;-2.79;64.06;98823.25;25146;1313;3027061;-71
2022/01/22 08:49:48;;;;;;;37.10;14.20;;;;;;;-2.97;64.75;98822.85;25178;1316;3049465;-67
2022/01/22 08:52:23;;;;;;;27.10;10.90;;;;;;;-2.70;64.41;98816.57;25175;1316;3028689;-72
2022/01/22 08:54:52;;;;;;;28.70;12.80;;;;;;;-2.87;64.79;98820.13;25266;1315;3053993;-70
2022/01/22 08:57:23;;;;;;;33.30;11.60;;;;;;;-2.76;64.78;98811.36;25480;1313;3026266;-67
2022/01/22 09:00:15;;;;;;;22.20;7.60;;;;;;;-2.61;64.30;98813.00;25830;1316;3049869;-74
2022/01/22 09:02:58;;;;;;;33.50;14.00;;;;;;;-2.50;63.75;98816.73;25238;1315;3052909;-70
2022/01/22 09:05:46;;;;;;;37.10;15.80;;;;;;;-2.59;64.59;98811.77;25142;1316;3053980;-70
2022/01/22 09:08:53;;;;;;;51.20;16.50;;;;;;;-2.54;64.45;98813.58;25028;1319;3071667;-69
2022/01/22 09:11:38;;;;;;;34.80;13.70;;;;;;;-2.60;64.50;98820.02;25143;1319;3049086;-67
2022/01/22 09:14:33;;;;;;;41.60;15.10;;;;;;;-2.48;64.35;98821.33;25198;1316;3055532;-74
2022/01/22 09:17:03;;;;;;;40.90;13.90;;;;;;;-2.41;64.12;98824.31;25147;1316;3027062;-72
2022/01/22 09:19:34;;;;;;;42.40;17.20;;;;;;;-2.59;64.41;98826.86;25126;1316;3052389;-71
2022/01/22 09:22:06;;;;;;;36.90;15.60;;;;;;;-2.52;65.02;98824.49;25110;1316;3026122;-71
2022/01/22 09:24:35;;;;;;;30.70;13.00;;;;;;;-2.24;64.03;98818.84;25181;1313;3026871;-70
2022/01/22 09:27:06;;;;;;;20.30;10.50;;;;;;;-2.27;63.85;98812.89;25133;1316;3027353;-67
2022/01/22 09:29:36;;;;;;;22.50;9.30;;;;;;;-2.21;63.66;98815.87;25145;1315;3026497;-73
2022/01/22 09:32:13;;;;;;;27.90;12.10;;;;;;;-2.30;63.66;98813.96;25139;1316;3055053;-74
2022/01/22 09:35:05;;;;;;;34.10;11.60;;;;;;;-2.46;64.49;98819.41;25112;1314;3053868;-71
2022/01/22 09:37:49;;;;;;;27.70;12.20;;;;;;;-2.58;64.51;98816.38;25192;1313;3068506;-67
2022/01/22 09:40:44;;;;;;;34.80;12.10;;;;;;;-2.42;64.43;98812.81;25170;1316;3052075;-71
2022/01/22 09:43:39;;;;;;;42.20;15.10;;;;;;;-2.43;64.54;98813.70;25147;1316;3054689;-74
2022/01/22 09:46:20;;;;;;;26.10;12.00;;;;;;;-2.28;64.61;98814.63;25186;1316;3052101;-76
2022/01/22 09:48:54;;;;;;;31.80;13.90;;;;;;;-2.31;64.32;98817.77;25172;1316;3056533;-70
2022/01/22 09:51:45;;;;;;;33.40;14.50;;;;;;;-2.31;64.72;98816.05;25131;1315;3050322;-66
2022/01/22 09:54:33;;;;;;;37.40;14.60;;;;;;;-2.20;64.69;98814.83;25187;1313;3055264;-69
2022/01/22 09:57:21;;;;;;;36.80;15.90;;;;;;;-2.06;64.45;98806.48;25197;1316;3054834;-69
2022/01/22 10:00:09;;;;;;;36.10;14.70;;;;;;;-2.07;64.55;98813.71;25117;1315;3067780;-68
2022/01/22 10:02:49;;;;;;;33.30;15.00;;;;;;;-2.01;64.25;98817.89;25139;1316;3051492;-68
2022/01/22 10:05:32;;;;;;;28.00;11.00;;;;;;;-1.82;63.52;98814.92;25147;1316;3053826;-71
2022/01/22 10:08:35;;;;;;;27.00;12.20;;;;;;;-1.77;63.34;98812.77;25034;1316;3054513;-69
2022/01/22 10:11:26;;;;;;;30.20;11.60;;;;;;;-1.86;64.00;98810.72;25206;1316;3056464;-72
2022/01/22 10:14:13;;;;;;;28.50;11.10;;;;;;;-1.65;63.42;98810.78;25256;1316;3051542;-71
2022/01/22 10:16:42;;;;;;;30.50;13.20;;;;;;;-1.71;63.50;98807.83;25195;1316;3030073;-68
2022/01/22 10:19:21;;;;;;;39.80;13.70;;;;;;;-1.48;63.20;98805.95;25144;1316;3058862;-71
2022/01/22 10:21:57;;;;;;;30.50;12.50;;;;;;;-1.31;62.78;98803.17;25182;1319;3048544;-68
2022/01/22 10:24:39;;;;;;;26.80;11.60;;;;;;;-1.32;62.64;98801.13;25195;1313;3052936;-70
2022/01/22 10:30:02;;;;;;;34.40;13.20;;;;;;;-1.22;62.31;98801.08;25199;1313;3071513;-69
2022/01/22 10:36:20;;;;;;;30.10;12.50;;;;;;;-0.99;61.83;98792.61;25024;1322;3055234;-73
2022/01/22 10:39:09;;;;;;;36.10;13.90;;;;;;;-1.07;61.80;98796.77;24995;1322;3050919;-67
2022/01/22 10:41:42;;;;;;;36.80;13.80;;;;;;;-1.27;62.08;98796.20;25198;1319;3027253;-68
2022/01/22 10:44:15;;;;;;;30.90;13.20;;;;;;;-1.44;62.38;98797.79;25207;1313;3027046;-69
2022/01/22 10:47:02;;;;;;;41.40;13.60;;;;;;;-1.34;62.33;98803.92;25161;1312;3052895;-68
2022/01/22 10:49:31;;;;;;;30.70;14.00;;;;;;;-1.31;62.36;98802.83;25119;1316;3051548;-69
2022/01/22 10:52:02;;;;;;;31.30;11.90;;;;;;;-1.66;63.07;98814.59;25123;1315;3026502;-71
2022/01/22 10:54:33;;;;;;;36.80;14.30;;;;;;;-1.69;63.37;98811.05;25199;1318;3053206;-71
2022/01/22 10:57:18;;;;;;;31.70;13.70;;;;;;;-1.56;63.46;98812.66;25160;1313;3051865;-68
2022/01/22 10:59:49;;;;;;;37.70;13.70;;;;;;;-1.66;63.72;98814.09;25168;1313;3071665;-70
2022/01/22 11:02:29;;;;;;;35.50;14.70;;;;;;;-1.82;64.39;98817.34;25197;1313;3026365;-68
2022/01/22 11:04:58;;;;;;;37.70;14.70;;;;;;;-1.82;64.33;98815.60;25165;1313;3052279;-66
2022/01/22 11:07:27;;;;;;;40.40;16.30;;;;;;;-1.88;64.61;98825.70;25145;1316;3026709;-66
2022/01/22 11:09:56;;;;;;;38.80;16.00;;;;;;;-1.79;64.60;98826.19;25200;1313;3050827;-67
2022/01/22 11:12:25;;;;;;;32.70;13.00;;;;;;;-1.70;64.20;98831.33;25250;1313;3027730;-67
2022/01/22 11:14:54;;;;;;;36.20;15.80;;;;;;;-1.70;64.11;98833.90;25140;1313;3070715;-70
2022/01/22 11:17:34;;;;;;;38.10;13.40;;;;;;;-1.46;64.14;98824.47;25255;1313;3051927;-66
2022/01/22 11:20:04;;;;;;;31.30;13.60;;;;;;;-1.45;63.90;98830.12;25243;1313;3026501;-66
2022/01/22 11:22:33;;;;;;;31.10;12.70;;;;;;;-1.64;64.12;98841.51;25162;1313;3026651;-70
2022/01/22 11:25:03;;;;;;;29.20;14.30;;;;;;;-1.63;64.59;98836.16;25189;1316;3027359;-67
2022/01/22 11:27:33;;;;;;;29.80;12.70;;;;;;;-1.69;64.71;98838.36;25257;1313;3054200;-67
2022/01/22 11:30:09;;;;;;;34.60;14.40;;;;;;;-1.75;64.97;98834.88;25095;1316;3027163;-70
2022/01/22 11:32:42;;;;;;;36.20;14.10;;;;;;;-1.67;64.82;98844.67;25107;1316;3055379;-69
2022/01/22 11:35:11;;;;;;;34.60;14.30;;;;;;;-1.84;65.34;98844.14;25194;1313;3027037;-69
2022/01/22 11:37:55;;;;;;;40.00;13.60;;;;;;;-1.79;65.51;98852.64;25138;1313;3025940;-67
2022/01/22 11:40:26;;;;;;;48.20;17.40;;;;;;;-1.65;65.10;98850.98;25170;1313;3053939;-71
2022/01/22 11:43:03;;;;;;;43.60;14.90;;;;;;;-1.70;65.41;98845.77;25136;1313;3026527;-65
2022/01/22 11:45:43;;;;;;;58.10;18.50;;;;;;;-1.68;65.14;98846.06;25140;1313;3048084;-69
2022/01/22 11:48:26;;;;;;;59.40;18.20;;;;;;;-1.57;65.30;98854.27;25174;1313;3057058;-66
2022/01/22 11:51:16;;;;;;;38.90;15.50;;;;;;;-1.41;64.69;98849.10;25160;1316;3054663;-69
2022/01/22 11:53:55;;;;;;;34.20;14.50;;;;;;;-1.53;64.75;98852.62;25118;1316;3058816;-66
2022/01/22 11:56:28;;;;;;;34.60;15.10;;;;;;;-1.65;65.08;98850.97;25133;1313;3050900;-70
2022/01/22 11:59:00;;;;;;;35.00;14.30;;;;;;;-1.72;65.20;98855.25;25130;1313;3027023;-68
2022/01/22 12:01:38;;;;;;;33.30;13.70;;;;;;;-1.67;65.27;98846.38;25152;1313;3026337;-68
2022/01/22 12:04:08;;;;;;;35.90;13.60;;;;;;;-1.52;64.74;98852.08;25134;1313;3068988;-70
2022/01/22 12:06:37;;;;;;;42.40;15.20;;;;;;;-1.43;64.74;98848.80;25153;1313;3026698;-77
2022/01/22 12:09:14;;;;;;;40.00;15.30;;;;;;;-1.46;65.00;98856.59;25102;1317;3026766;-71
2022/01/22 12:14:47;;;;;;;40.90;15.20;;;;;;;-1.46;64.84;98862.60;25164;1313;3049154;-66
2022/01/22 12:17:27;;;;;;;36.90;13.40;;;;;;;-1.31;64.50;98858.16;25200;1313;3054745;-74
2022/01/22 12:22:35;;;;;;;31.40;11.50;;;;;;;-1.29;64.53;98863.08;25177;1313;3027053;-66
2022/01/22 12:25:07;;;;;;;25.10;11.40;;;;;;;-1.28;64.61;98862.21;25137;1313;3052617;-67
2022/01/22 12:27:47;;;;;;;29.60;12.30;;;;;;;-1.29;64.60;98862.41;25150;1313;3026125;-71
2022/01/22 12:30:31;;;;;;;26.20;11.30;;;;;;;-1.31;64.91;98863.14;25187;1313;3058894;-70
2022/01/22 12:33:01;;;;;;;28.00;12.10;;;;;;;-1.29;64.87;98863.77;25141;1313;3052554;-73
2022/01/22 12:35:38;;;;;;;38.60;13.10;;;;;;;-1.31;64.82;98864.34;25126;1315;3026304;-71
2022/01/22 12:38:20;;;;;;;53.90;18.30;;;;;;;-1.35;65.32;98861.50;25177;1316;3054529;-71
2022/01/22 12:41:13;;;;;;;85.70;24.90;;;;;;;-1.15;65.13;98860.37;25107;1316;3070995;-69
2022/01/22 12:43:44;;;;;;;53.90;17.10;;;;;;;-1.08;64.86;98865.21;25118;1315;3052443;-75
2022/01/22 12:46:13;;;;;;;51.60;16.40;;;;;;;-1.31;65.53;98865.89;25138;1313;3026439;-66
2022/01/22 12:48:44;;;;;;;41.10;15.80;;;;;;;-1.14;64.67;98871.02;25169;1313;3026083;-68
2022/01/22 12:51:13;;;;;;;35.00;14.40;;;;;;;-1.04;64.45;98867.51;25098;1313;3026462;-70
2022/01/22 12:53:48;;;;;;;34.30;12.90;;;;;;;-1.03;64.28;98870.59;25145;1316;3053836;-65
2022/01/22 12:59:04;;;;;;;29.10;12.40;;;;;;;-1.07;64.51;98869.64;25136;1315;3056028;-70
2022/01/22 13:01:34;;;;;;;27.90;13.00;;;;;;;-0.95;64.23;98874.36;25145;1316;3027050;-68
2022/01/22 13:04:07;;;;;;;40.50;17.80;;;;;;;-1.02;64.23;98873.16;25177;1316;3027152;-70
2022/01/22 13:06:53;;;;;;;28.30;12.70;;;;;;;-1.00;64.38;98872.76;25170;1318;3053843;-74
2022/01/22 13:09:47;;;;;;;24.60;11.10;;;;;;;-0.94;64.02;98877.25;25146;1315;3068334;-69
2022/01/22 13:12:18;;;;;;;34.50;13.50;;;;;;;-0.97;63.75;98872.00;25173;1316;3052397;-66
2022/01/22 13:14:47;;;;;;;36.80;15.40;;;;;;;-0.99;64.21;98878.77;25255;1316;3026304;-69
2022/01/22 13:17:16;;;;;;;28.20;12.80;;;;;;;-1.03;63.76;98881.60;25600;1316;3068206;-74
2022/01/22 13:19:44;;;;;;;29.00;13.10;;;;;;;-1.18;64.13;98885.55;25839;1313;3026520;-67
2022/01/22 13:22:15;;;;;;;34.20;14.10;;;;;;;-1.20;64.60;98885.60;25770;1313;3050428;-68
2022/01/22 13:24:44;;;;;;;29.70;14.00;;;;;;;-1.13;64.58;98881.48;25264;1313;3026659;-66
2022/01/22 13:27:16;;;;;;;32.50;13.70;;;;;;;-1.18;64.79;98883.47;25193;1313;3030486;-67
2022/01/22 13:29:56;;;;;;;35.60;14.60;;;;;;;-1.17;64.42;98886.04;25216;1313;3051359;-72
2022/01/22 13:49:13;;;;;;;34.50;13.40;;;;;;;-0.98;64.55;98894.19;25138;1313;3052044;-68
2022/01/22 13:51:43;;;;;;;36.70;15.00;;;;;;;-0.96;64.78;98896.74;25122;1313;3027059;-69